sensor_id;sensor_type;location;lat;lon;timestamp;P1;durP1;ratioP1;P2;durP2;ratioP2
42646;SDS011;31319;53.678;-6.254;2022-09-02T00:01:15;8.02;;;2.55;;
42646;SDS011;31319;53.678;-6.254;2022-09-02T00:03:41;6.57;;;2.45;;
42646;SDS011;31319;53.678;-6.254;2022-09-02T00:06:07;6.57;;;3.10;;
42646;SDS011;31319;53.678;-6.254;2022-09-02T00:08:33;5.00;;;2.75;;
42646;SDS011;31319;53.678;-6.254;2022-09-02T00:10:59;7.15;;;2.72;;
42646;SDS011;31319;53.678;-6.254;2022-09-02T00:13:27;5.32;;;2.75;;
42646;SDS011;31319;53.678;-6.254;2022-09-02T00:15:53;7.47;;;2.65;;
42646;SDS011;31319;53.678;-6.254;2022-09-02T00:18:19;6.88;;;2.83;;
42646;SDS011;31319;53.678;-6.254;2022-09-02T00:20:45;7.53;;;2.92;;
42646;SDS011;31319;53.678;-6.254;2022-09-02T00:23:12;7.25;;;2.90;;
42646;SDS011;31319;53.678;-6.254;2022-09-02T00:25:39;3.42;;;2.17;;
42646;SDS011;31319;53.678;-6.254;2022-09-02T00:28:08;6.47;;;2.60;;
42646;SDS011;31319;53.678;-6.254;2022-09-02T00:30:35;7.60;;;2.72;;
42646;SDS011;31319;53.678;-6.254;2022-09-02T00:33:01;7.55;;;2.88;;
42646;SDS011;31319;53.678;-6.254;2022-09-02T00:35:27;4.65;;;2.90;;
42646;SDS011;31319;53.678;-6.254;2022-09-02T00:37:53;6.00;;;2.90;;
42646;SDS011;31319;53.678;-6.254;2022-09-02T00:40:19;4.97;;;2.92;;
42646;SDS011;31319;53.678;-6.254;2022-09-02T00:42:45;7.22;;;2.60;;
42646;SDS011;31319;53.678;-6.254;2022-09-02T00:45:10;5.72;;;2.78;;
42646;SDS011;31319;53.678;-6.254;2022-09-02T00:47:36;5.95;;;3.05;;
42646;SDS011;31319;53.678;-6.254;2022-09-02T00:50:04;8.32;;;3.38;;
42646;SDS011;31319;53.678;-6.254;2022-09-02T00:52:34;4.97;;;2.40;;
42646;SDS011;31319;53.678;-6.254;2022-09-02T00:55:07;6.88;;;3.00;;
42646;SDS011;31319;53.678;-6.254;2022-09-02T00:57:41;8.90;;;3.30;;
42646;SDS011;31319;53.678;-6.254;2022-09-02T01:00:30;9.00;;;3.33;;
42646;SDS011;31319;53.678;-6.254;2022-09-02T01:03:01;7.45;;;3.10;;
42646;SDS011;31319;53.678;-6.254;2022-09-02T01:05:31;9.63;;;3.08;;
42646;SDS011;31319;53.678;-6.254;2022-09-02T01:08:01;4.60;;;2.33;;
42646;SDS011;31319;53.678;-6.254;2022-09-02T01:10:32;5.97;;;2.70;;
42646;SDS011;31319;53.678;-6.254;2022-09-02T01:13:00;9.20;;;2.30;;
42646;SDS011;31319;53.678;-6.254;2022-09-02T01:15:32;6.90;;;3.40;;
42646;SDS011;31319;53.678;-6.254;2022-09-02T01:18:01;6.60;;;2.97;;
42646;SDS011;31319;53.678;-6.254;2022-09-02T01:20:29;7.07;;;2.50;;
42646;SDS011;31319;53.678;-6.254;2022-09-02T01:22:55;4.70;;;2.67;;
42646;SDS011;31319;53.678;-6.254;2022-09-02T01:25:26;9.77;;;2.60;;
42646;SDS011;31319;53.678;-6.254;2022-09-02T01:27:59;6.80;;;2.92;;
42646;SDS011;31319;53.678;-6.254;2022-09-02T01:30:27;8.80;;;2.70;;
42646;SDS011;31319;53.678;-6.254;2022-09-02T01:32:53;7.57;;;2.38;;
42646;SDS011;31319;53.678;-6.254;2022-09-02T01:35:20;5.22;;;3.05;;
42646;SDS011;31319;53.678;-6.254;2022-09-02T01:37:46;6.80;;;3.40;;
42646;SDS011;31319;53.678;-6.254;2022-09-02T01:40:14;7.65;;;2.60;;
42646;SDS011;31319;53.678;-6.254;2022-09-02T01:42:42;7.30;;;2.55;;
42646;SDS011;31319;53.678;-6.254;2022-09-02T01:45:08;13.35;;;3.20;;
42646;SDS011;31319;53.678;-6.254;2022-09-02T01:47:35;6.93;;;2.88;;
42646;SDS011;31319;53.678;-6.254;2022-09-02T01:50:03;6.32;;;2.97;;
42646;SDS011;31319;53.678;-6.254;2022-09-02T01:52:30;8.13;;;2.85;;
42646;SDS011;31319;53.678;-6.254;2022-09-02T01:54:57;5.63;;;2.42;;
42646;SDS011;31319;53.678;-6.254;2022-09-02T01:57:22;8.45;;;2.92;;
42646;SDS011;31319;53.678;-6.254;2022-09-02T01:59:49;10.07;;;3.13;;
42646;SDS011;31319;53.678;-6.254;2022-09-02T02:02:15;7.20;;;2.38;;
42646;SDS011;31319;53.678;-6.254;2022-09-02T02:04:44;9.48;;;2.90;;
42646;SDS011;31319;53.678;-6.254;2022-09-02T02:07:11;8.57;;;3.10;;
42646;SDS011;31319;53.678;-6.254;2022-09-02T02:09:38;5.55;;;3.00;;
42646;SDS011;31319;53.678;-6.254;2022-09-02T02:12:05;5.85;;;2.60;;
42646;SDS011;31319;53.678;-6.254;2022-09-02T02:14:32;7.22;;;2.70;;
42646;SDS011;31319;53.678;-6.254;2022-09-02T02:16:57;13.63;;;3.45;;
42646;SDS011;31319;53.678;-6.254;2022-09-02T02:19:23;6.35;;;2.55;;
42646;SDS011;31319;53.678;-6.254;2022-09-02T02:21:49;7.57;;;2.70;;
42646;SDS011;31319;53.678;-6.254;2022-09-02T02:24:14;8.10;;;2.60;;
42646;SDS011;31319;53.678;-6.254;2022-09-02T02:26:41;7.93;;;3.42;;
42646;SDS011;31319;53.678;-6.254;2022-09-02T02:29:07;6.30;;;3.40;;
42646;SDS011;31319;53.678;-6.254;2022-09-02T02:31:33;7.25;;;2.90;;
42646;SDS011;31319;53.678;-6.254;2022-09-02T02:33:59;10.07;;;4.43;;
42646;SDS011;31319;53.678;-6.254;2022-09-02T02:36:26;8.40;;;3.25;;
42646;SDS011;31319;53.678;-6.254;2022-09-02T02:38:52;5.40;;;2.42;;
42646;SDS011;31319;53.678;-6.254;2022-09-02T02:41:17;6.03;;;2.58;;
42646;SDS011;31319;53.678;-6.254;2022-09-02T02:43:43;8.77;;;2.67;;
42646;SDS011;31319;53.678;-6.254;2022-09-02T02:46:09;7.32;;;3.00;;
42646;SDS011;31319;53.678;-6.254;2022-09-02T02:48:35;6.45;;;2.90;;
42646;SDS011;31319;53.678;-6.254;2022-09-02T02:51:02;11.05;;;2.97;;
42646;SDS011;31319;53.678;-6.254;2022-09-02T02:53:28;8.13;;;3.33;;
42646;SDS011;31319;53.678;-6.254;2022-09-02T02:55:55;9.05;;;3.03;;
42646;SDS011;31319;53.678;-6.254;2022-09-02T02:58:24;8.15;;;2.63;;
42646;SDS011;31319;53.678;-6.254;2022-09-02T03:00:50;5.32;;;2.55;;
42646;SDS011;31319;53.678;-6.254;2022-09-02T03:03:16;8.18;;;3.25;;
42646;SDS011;31319;53.678;-6.254;2022-09-02T03:05:46;10.65;;;3.47;;
42646;SDS011;31319;53.678;-6.254;2022-09-02T03:08:13;9.63;;;3.70;;
42646;SDS011;31319;53.678;-6.254;2022-09-02T03:10:40;11.02;;;4.03;;
42646;SDS011;31319;53.678;-6.254;2022-09-02T03:13:07;8.77;;;3.42;;
42646;SDS011;31319;53.678;-6.254;2022-09-02T03:15:35;11.82;;;3.55;;
42646;SDS011;31319;53.678;-6.254;2022-09-02T03:18:03;14.70;;;3.47;;
42646;SDS011;31319;53.678;-6.254;2022-09-02T03:20:29;8.23;;;3.25;;
42646;SDS011;31319;53.678;-6.254;2022-09-02T03:22:55;11.27;;;3.05;;
42646;SDS011;31319;53.678;-6.254;2022-09-02T03:25:23;14.60;;;4.32;;
42646;SDS011;31319;53.678;-6.254;2022-09-02T03:27:50;11.50;;;2.83;;
42646;SDS011;31319;53.678;-6.254;2022-09-02T03:30:17;10.60;;;3.50;;
42646;SDS011;31319;53.678;-6.254;2022-09-02T03:32:46;14.68;;;3.95;;
42646;SDS011;31319;53.678;-6.254;2022-09-02T03:35:13;14.43;;;4.15;;
42646;SDS011;31319;53.678;-6.254;2022-09-02T03:37:41;16.13;;;4.47;;
42646;SDS011;31319;53.678;-6.254;2022-09-02T03:40:09;12.82;;;4.15;;
42646;SDS011;31319;53.678;-6.254;2022-09-02T03:42:41;15.40;;;4.38;;
42646;SDS011;31319;53.678;-6.254;2022-09-02T03:45:07;12.10;;;3.40;;
42646;SDS011;31319;53.678;-6.254;2022-09-02T03:47:34;14.98;;;4.32;;
42646;SDS011;31319;53.678;-6.254;2022-09-02T03:50:01;13.57;;;3.63;;
42646;SDS011;31319;53.678;-6.254;2022-09-02T03:52:28;10.30;;;4.05;;
42646;SDS011;31319;53.678;-6.254;2022-09-02T03:54:54;10.80;;;4.25;;
42646;SDS011;31319;53.678;-6.254;2022-09-02T03:57:20;12.15;;;4.50;;
42646;SDS011;31319;53.678;-6.254;2022-09-02T03:59:49;12.40;;;3.33;;
42646;SDS011;31319;53.678;-6.254;2022-09-02T04:02:15;14.52;;;4.28;;
42646;SDS011;31319;53.678;-6.254;2022-09-02T04:04:41;15.23;;;4.15;;
42646;SDS011;31319;53.678;-6.254;2022-09-02T04:07:06;14.20;;;4.30;;
42646;SDS011;31319;53.678;-6.254;2022-09-02T04:09:32;10.25;;;4.00;;
42646;SDS011;31319;53.678;-6.254;2022-09-02T04:11:58;10.57;;;4.07;;
42646;SDS011;31319;53.678;-6.254;2022-09-02T04:14:24;14.25;;;4.78;;
42646;SDS011;31319;53.678;-6.254;2022-09-02T04:16:50;17.58;;;4.78;;
42646;SDS011;31319;53.678;-6.254;2022-09-02T04:19:16;10.43;;;4.28;;
42646;SDS011;31319;53.678;-6.254;2022-09-02T04:21:41;17.83;;;4.88;;
42646;SDS011;31319;53.678;-6.254;2022-09-02T04:24:08;11.80;;;4.25;;
42646;SDS011;31319;53.678;-6.254;2022-09-02T04:26:35;13.55;;;4.13;;
42646;SDS011;31319;53.678;-6.254;2022-09-02T04:29:01;11.60;;;4.30;;
42646;SDS011;31319;53.678;-6.254;2022-09-02T04:31:28;13.82;;;4.47;;
42646;SDS011;31319;53.678;-6.254;2022-09-02T04:33:56;12.68;;;4.13;;
42646;SDS011;31319;53.678;-6.254;2022-09-02T04:36:23;11.88;;;4.70;;
42646;SDS011;31319;53.678;-6.254;2022-09-02T04:38:49;10.77;;;4.20;;
42646;SDS011;31319;53.678;-6.254;2022-09-02T04:41:17;12.95;;;4.18;;
42646;SDS011;31319;53.678;-6.254;2022-09-02T04:43:45;13.55;;;4.25;;
42646;SDS011;31319;53.678;-6.254;2022-09-02T04:46:11;18.75;;;4.93;;
42646;SDS011;31319;53.678;-6.254;2022-09-02T04:48:39;10.15;;;4.00;;
42646;SDS011;31319;53.678;-6.254;2022-09-02T04:51:06;8.95;;;3.53;;
42646;SDS011;31319;53.678;-6.254;2022-09-02T04:53:33;8.23;;;2.93;;
42646;SDS011;31319;53.678;-6.254;2022-09-02T04:56:00;5.55;;;3.35;;
42646;SDS011;31319;53.678;-6.254;2022-09-02T04:58:28;7.13;;;2.90;;
42646;SDS011;31319;53.678;-6.254;2022-09-02T05:00:53;9.25;;;4.25;;
42646;SDS011;31319;53.678;-6.254;2022-09-02T05:03:19;9.32;;;3.47;;
42646;SDS011;31319;53.678;-6.254;2022-09-02T05:05:45;7.78;;;3.90;;
42646;SDS011;31319;53.678;-6.254;2022-09-02T05:08:12;9.70;;;3.38;;
42646;SDS011;31319;53.678;-6.254;2022-09-02T05:10:38;9.25;;;3.70;;
42646;SDS011;31319;53.678;-6.254;2022-09-02T05:13:05;13.43;;;3.85;;
42646;SDS011;31319;53.678;-6.254;2022-09-02T05:15:30;11.27;;;4.10;;
42646;SDS011;31319;53.678;-6.254;2022-09-02T05:17:57;7.63;;;3.60;;
42646;SDS011;31319;53.678;-6.254;2022-09-02T05:20:22;8.43;;;3.33;;
42646;SDS011;31319;53.678;-6.254;2022-09-02T05:22:48;12.48;;;4.20;;
42646;SDS011;31319;53.678;-6.254;2022-09-02T05:25:14;8.60;;;4.65;;
42646;SDS011;31319;53.678;-6.254;2022-09-02T05:27:40;7.93;;;3.45;;
42646;SDS011;31319;53.678;-6.254;2022-09-02T05:30:06;8.05;;;3.67;;
42646;SDS011;31319;53.678;-6.254;2022-09-02T05:32:32;6.13;;;3.20;;
42646;SDS011;31319;53.678;-6.254;2022-09-02T05:34:58;11.95;;;3.33;;
42646;SDS011;31319;53.678;-6.254;2022-09-02T05:37:24;11.07;;;3.90;;
42646;SDS011;31319;53.678;-6.254;2022-09-02T05:39:50;10.82;;;3.45;;
42646;SDS011;31319;53.678;-6.254;2022-09-02T05:42:17;9.32;;;4.07;;
42646;SDS011;31319;53.678;-6.254;2022-09-02T05:44:44;12.23;;;4.40;;
42646;SDS011;31319;53.678;-6.254;2022-09-02T05:47:10;6.75;;;4.05;;
42646;SDS011;31319;53.678;-6.254;2022-09-02T05:49:37;7.82;;;4.90;;
42646;SDS011;31319;53.678;-6.254;2022-09-02T05:52:03;13.50;;;4.78;;
42646;SDS011;31319;53.678;-6.254;2022-09-02T05:54:33;11.00;;;4.50;;
42646;SDS011;31319;53.678;-6.254;2022-09-02T05:57:02;9.88;;;5.55;;
42646;SDS011;31319;53.678;-6.254;2022-09-02T05:59:32;9.38;;;5.25;;
42646;SDS011;31319;53.678;-6.254;2022-09-02T06:02:02;12.10;;;4.97;;
42646;SDS011;31319;53.678;-6.254;2022-09-02T06:04:28;10.25;;;4.90;;
42646;SDS011;31319;53.678;-6.254;2022-09-02T06:06:54;10.82;;;4.65;;
42646;SDS011;31319;53.678;-6.254;2022-09-02T06:09:20;10.52;;;5.00;;
42646;SDS011;31319;53.678;-6.254;2022-09-02T06:11:47;15.77;;;6.53;;
42646;SDS011;31319;53.678;-6.254;2022-09-02T06:14:15;11.85;;;5.95;;
42646;SDS011;31319;53.678;-6.254;2022-09-02T06:16:42;10.65;;;5.50;;
42646;SDS011;31319;53.678;-6.254;2022-09-02T06:19:08;10.05;;;6.68;;
42646;SDS011;31319;53.678;-6.254;2022-09-02T06:21:35;9.85;;;5.90;;
42646;SDS011;31319;53.678;-6.254;2022-09-02T06:24:03;11.20;;;5.32;;
42646;SDS011;31319;53.678;-6.254;2022-09-02T06:26:30;8.80;;;5.43;;
42646;SDS011;31319;53.678;-6.254;2022-09-02T06:28:56;17.17;;;5.75;;
42646;SDS011;31319;53.678;-6.254;2022-09-02T06:31:22;13.00;;;6.60;;
42646;SDS011;31319;53.678;-6.254;2022-09-02T06:33:50;11.18;;;5.15;;
42646;SDS011;31319;53.678;-6.254;2022-09-02T06:36:18;15.48;;;5.93;;
42646;SDS011;31319;53.678;-6.254;2022-09-02T06:38:46;18.08;;;6.32;;
42646;SDS011;31319;53.678;-6.254;2022-09-02T06:41:15;12.82;;;5.10;;
42646;SDS011;31319;53.678;-6.254;2022-09-02T06:43:43;9.75;;;5.50;;
42646;SDS011;31319;53.678;-6.254;2022-09-02T06:46:13;11.70;;;5.75;;
42646;SDS011;31319;53.678;-6.254;2022-09-02T06:48:41;15.55;;;5.43;;
42646;SDS011;31319;53.678;-6.254;2022-09-02T06:51:06;14.18;;;5.95;;
42646;SDS011;31319;53.678;-6.254;2022-09-02T06:53:32;11.00;;;6.03;;
42646;SDS011;31319;53.678;-6.254;2022-09-02T06:55:58;17.77;;;6.97;;
42646;SDS011;31319;53.678;-6.254;2022-09-02T06:58:23;10.93;;;6.90;;
42646;SDS011;31319;53.678;-6.254;2022-09-02T07:00:49;11.05;;;6.32;;
42646;SDS011;31319;53.678;-6.254;2022-09-02T07:03:14;16.17;;;8.35;;
42646;SDS011;31319;53.678;-6.254;2022-09-02T07:06:08;12.90;;;6.40;;
42646;SDS011;31319;53.678;-6.254;2022-09-02T07:08:36;16.30;;;6.90;;
42646;SDS011;31319;53.678;-6.254;2022-09-02T07:11:03;11.75;;;7.55;;
42646;SDS011;31319;53.678;-6.254;2022-09-02T07:13:31;13.50;;;6.65;;
42646;SDS011;31319;53.678;-6.254;2022-09-02T07:15:57;9.95;;;6.18;;
42646;SDS011;31319;53.678;-6.254;2022-09-02T07:18:23;11.88;;;6.75;;
42646;SDS011;31319;53.678;-6.254;2022-09-02T07:20:48;13.05;;;6.63;;
42646;SDS011;31319;53.678;-6.254;2022-09-02T07:23:15;34.72;;;9.32;;
42646;SDS011;31319;53.678;-6.254;2022-09-02T07:25:41;17.08;;;6.38;;
42646;SDS011;31319;53.678;-6.254;2022-09-02T07:28:07;17.70;;;6.53;;
42646;SDS011;31319;53.678;-6.254;2022-09-02T07:30:33;20.75;;;7.40;;
42646;SDS011;31319;53.678;-6.254;2022-09-02T07:32:59;13.43;;;6.45;;
42646;SDS011;31319;53.678;-6.254;2022-09-02T07:35:25;12.80;;;6.47;;
42646;SDS011;31319;53.678;-6.254;2022-09-02T07:37:50;9.05;;;6.40;;
42646;SDS011;31319;53.678;-6.254;2022-09-02T07:40:16;13.98;;;5.90;;
42646;SDS011;31319;53.678;-6.254;2022-09-02T07:42:42;14.38;;;7.00;;
42646;SDS011;31319;53.678;-6.254;2022-09-02T07:45:08;16.52;;;7.05;;
42646;SDS011;31319;53.678;-6.254;2022-09-02T07:47:35;20.38;;;7.13;;
42646;SDS011;31319;53.678;-6.254;2022-09-02T07:50:01;12.75;;;7.20;;
42646;SDS011;31319;53.678;-6.254;2022-09-02T07:52:28;20.70;;;9.98;;
42646;SDS011;31319;53.678;-6.254;2022-09-02T07:54:53;11.98;;;6.93;;
42646;SDS011;31319;53.678;-6.254;2022-09-02T07:57:19;14.13;;;6.95;;
42646;SDS011;31319;53.678;-6.254;2022-09-02T07:59:45;12.80;;;7.95;;
42646;SDS011;31319;53.678;-6.254;2022-09-02T08:02:12;19.67;;;7.78;;
42646;SDS011;31319;53.678;-6.254;2022-09-02T08:04:38;14.20;;;7.43;;
42646;SDS011;31319;53.678;-6.254;2022-09-02T08:07:04;13.88;;;7.65;;
42646;SDS011;31319;53.678;-6.254;2022-09-02T08:09:30;16.63;;;7.45;;
42646;SDS011;31319;53.678;-6.254;2022-09-02T08:11:56;14.93;;;7.53;;
42646;SDS011;31319;53.678;-6.254;2022-09-02T08:14:23;12.13;;;6.95;;
42646;SDS011;31319;53.678;-6.254;2022-09-02T08:16:52;16.20;;;8.32;;
42646;SDS011;31319;53.678;-6.254;2022-09-02T08:19:18;13.02;;;6.80;;
42646;SDS011;31319;53.678;-6.254;2022-09-02T08:21:44;14.05;;;6.97;;
42646;SDS011;31319;53.678;-6.254;2022-09-02T08:24:09;17.15;;;6.88;;
42646;SDS011;31319;53.678;-6.254;2022-09-02T08:26:35;15.70;;;6.72;;
42646;SDS011;31319;53.678;-6.254;2022-09-02T08:29:04;12.63;;;6.82;;
42646;SDS011;31319;53.678;-6.254;2022-09-02T08:31:31;15.60;;;7.13;;
42646;SDS011;31319;53.678;-6.254;2022-09-02T08:33:58;16.45;;;6.88;;
42646;SDS011;31319;53.678;-6.254;2022-09-02T08:36:25;18.92;;;8.02;;
42646;SDS011;31319;53.678;-6.254;2022-09-02T08:38:51;14.32;;;6.95;;
42646;SDS011;31319;53.678;-6.254;2022-09-02T08:41:21;16.98;;;7.78;;
42646;SDS011;31319;53.678;-6.254;2022-09-02T08:43:48;19.77;;;6.90;;
42646;SDS011;31319;53.678;-6.254;2022-09-02T08:46:17;10.83;;;6.40;;
42646;SDS011;31319;53.678;-6.254;2022-09-02T08:48:50;10.25;;;5.55;;
42646;SDS011;31319;53.678;-6.254;2022-09-02T08:53:59;19.25;;;7.05;;
42646;SDS011;31319;53.678;-6.254;2022-09-02T08:56:30;13.98;;;6.80;;
42646;SDS011;31319;53.678;-6.254;2022-09-02T08:58:56;12.82;;;6.63;;
42646;SDS011;31319;53.678;-6.254;2022-09-02T09:01:31;15.95;;;7.05;;
42646;SDS011;31319;53.678;-6.254;2022-09-02T09:09:57;17.88;;;6.53;;
42646;SDS011;31319;53.678;-6.254;2022-09-02T09:17:55;12.68;;;5.90;;
42646;SDS011;31319;53.678;-6.254;2022-09-02T09:20:24;14.90;;;7.75;;
42646;SDS011;31319;53.678;-6.254;2022-09-02T09:22:54;13.00;;;6.10;;
42646;SDS011;31319;53.678;-6.254;2022-09-02T09:27:57;12.65;;;7.53;;
42646;SDS011;31319;53.678;-6.254;2022-09-02T09:30:24;23.30;;;8.18;;
42646;SDS011;31319;53.678;-6.254;2022-09-02T09:32:53;16.80;;;7.78;;
42646;SDS011;31319;53.678;-6.254;2022-09-02T09:35:24;19.75;;;8.05;;
42646;SDS011;31319;53.678;-6.254;2022-09-02T09:37:52;13.10;;;7.93;;
42646;SDS011;31319;53.678;-6.254;2022-09-02T09:50:36;18.60;;;7.63;;
42646;SDS011;31319;53.678;-6.254;2022-09-02T09:53:21;11.82;;;6.65;;
42646;SDS011;31319;53.678;-6.254;2022-09-02T09:55:54;14.88;;;7.00;;
42646;SDS011;31319;53.678;-6.254;2022-09-02T10:03:56;12.88;;;6.35;;
42646;SDS011;31319;53.678;-6.254;2022-09-02T10:06:49;19.38;;;7.40;;
42646;SDS011;31319;53.678;-6.254;2022-09-02T10:12:29;12.18;;;6.97;;
42646;SDS011;31319;53.678;-6.254;2022-09-02T10:14:45;17.45;;;8.25;;
42646;SDS011;31319;53.678;-6.254;2022-09-02T10:19:53;20.50;;;8.07;;
42646;SDS011;31319;53.678;-6.254;2022-09-02T10:34:00;12.10;;;7.13;;
42646;SDS011;31319;53.678;-6.254;2022-09-02T10:42:40;12.55;;;5.18;;
42646;SDS011;31319;53.678;-6.254;2022-09-02T10:45:16;16.55;;;5.82;;
42646;SDS011;31319;53.678;-6.254;2022-09-02T10:50:55;14.45;;;5.85;;
42646;SDS011;31319;53.678;-6.254;2022-09-02T10:53:35;11.10;;;5.22;;
42646;SDS011;31319;53.678;-6.254;2022-09-02T10:56:18;13.20;;;6.10;;
42646;SDS011;31319;53.678;-6.254;2022-09-02T11:01:26;18.05;;;5.50;;
42646;SDS011;31319;53.678;-6.254;2022-09-02T11:04:00;14.75;;;6.57;;
42646;SDS011;31319;53.678;-6.254;2022-09-02T11:06:37;11.90;;;5.43;;
42646;SDS011;31319;53.678;-6.254;2022-09-02T11:17:35;22.33;;;7.40;;
42646;SDS011;31319;53.678;-6.254;2022-09-02T11:23:18;17.20;;;4.80;;
42646;SDS011;31319;53.678;-6.254;2022-09-02T11:26:48;12.43;;;4.93;;
42646;SDS011;31319;53.678;-6.254;2022-09-02T11:31:23;17.67;;;6.07;;
42646;SDS011;31319;53.678;-6.254;2022-09-02T11:34:44;15.27;;;5.68;;
42646;SDS011;31319;53.678;-6.254;2022-09-02T11:37:10;17.80;;;6.00;;
42646;SDS011;31319;53.678;-6.254;2022-09-02T11:39:52;13.23;;;4.78;;
42646;SDS011;31319;53.678;-6.254;2022-09-02T11:42:31;9.80;;;4.43;;
42646;SDS011;31319;53.678;-6.254;2022-09-02T11:45:11;15.13;;;5.50;;
42646;SDS011;31319;53.678;-6.254;2022-09-02T11:48:58;14.40;;;6.57;;
42646;SDS011;31319;53.678;-6.254;2022-09-02T11:53:56;17.15;;;5.78;;
42646;SDS011;31319;53.678;-6.254;2022-09-02T11:56:29;12.02;;;6.18;;
42646;SDS011;31319;53.678;-6.254;2022-09-02T11:59:04;11.13;;;6.22;;
42646;SDS011;31319;53.678;-6.254;2022-09-02T12:01:32;16.75;;;6.07;;
42646;SDS011;31319;53.678;-6.254;2022-09-02T12:06:37;18.50;;;6.47;;
42646;SDS011;31319;53.678;-6.254;2022-09-02T12:09:46;19.02;;;6.43;;
42646;SDS011;31319;53.678;-6.254;2022-09-02T12:15:00;14.25;;;6.25;;
42646;SDS011;31319;53.678;-6.254;2022-09-02T12:17:37;14.10;;;5.93;;
42646;SDS011;31319;53.678;-6.254;2022-09-02T12:26:08;12.95;;;5.22;;
42646;SDS011;31319;53.678;-6.254;2022-09-02T12:28:34;10.95;;;3.97;;
42646;SDS011;31319;53.678;-6.254;2022-09-02T12:33:41;12.13;;;4.75;;
42646;SDS011;31319;53.678;-6.254;2022-09-02T12:36:42;12.63;;;5.93;;
42646;SDS011;31319;53.678;-6.254;2022-09-02T12:42:14;10.50;;;5.63;;
42646;SDS011;31319;53.678;-6.254;2022-09-02T12:50:27;12.35;;;4.45;;
42646;SDS011;31319;53.678;-6.254;2022-09-02T12:55:35;10.75;;;4.20;;
42646;SDS011;31319;53.678;-6.254;2022-09-02T12:58:06;10.02;;;4.72;;
42646;SDS011;31319;53.678;-6.254;2022-09-02T13:03:22;12.90;;;5.45;;
42646;SDS011;31319;53.678;-6.254;2022-09-02T13:06:33;8.55;;;4.75;;
42646;SDS011;31319;53.678;-6.254;2022-09-02T13:17:18;12.07;;;4.88;;
42646;SDS011;31319;53.678;-6.254;2022-09-02T13:31:17;9.95;;;4.20;;
42646;SDS011;31319;53.678;-6.254;2022-09-02T13:33:44;8.15;;;3.58;;
42646;SDS011;31319;53.678;-6.254;2022-09-02T13:36:10;8.40;;;4.10;;
42646;SDS011;31319;53.678;-6.254;2022-09-02T13:38:44;13.68;;;4.97;;
42646;SDS011;31319;53.678;-6.254;2022-09-02T13:41:10;8.63;;;3.67;;
42646;SDS011;31319;53.678;-6.254;2022-09-02T13:44:21;8.02;;;3.75;;
42646;SDS011;31319;53.678;-6.254;2022-09-02T13:46:47;11.70;;;4.43;;
42646;SDS011;31319;53.678;-6.254;2022-09-02T13:49:27;13.02;;;4.55;;
42646;SDS011;31319;53.678;-6.254;2022-09-02T13:51:59;10.05;;;4.22;;
42646;SDS011;31319;53.678;-6.254;2022-09-02T13:54:27;8.48;;;4.32;;
42646;SDS011;31319;53.678;-6.254;2022-09-02T13:57:00;9.68;;;4.15;;
42646;SDS011;31319;53.678;-6.254;2022-09-02T13:59:38;5.72;;;4.20;;
42646;SDS011;31319;53.678;-6.254;2022-09-02T14:02:19;10.80;;;4.57;;
42646;SDS011;31319;53.678;-6.254;2022-09-02T14:04:48;11.60;;;4.25;;
42646;SDS011;31319;53.678;-6.254;2022-09-02T14:07:23;7.43;;;3.72;;
42646;SDS011;31319;53.678;-6.254;2022-09-02T14:09:59;8.50;;;4.20;;
42646;SDS011;31319;53.678;-6.254;2022-09-02T14:12:27;7.38;;;4.45;;
42646;SDS011;31319;53.678;-6.254;2022-09-02T14:14:56;8.23;;;4.47;;
42646;SDS011;31319;53.678;-6.254;2022-09-02T14:17:24;10.18;;;4.28;;
42646;SDS011;31319;53.678;-6.254;2022-09-02T14:19:51;9.48;;;4.35;;
42646;SDS011;31319;53.678;-6.254;2022-09-02T14:22:31;10.10;;;4.25;;
42646;SDS011;31319;53.678;-6.254;2022-09-02T14:24:57;14.63;;;4.70;;
42646;SDS011;31319;53.678;-6.254;2022-09-02T14:27:22;11.40;;;4.03;;
42646;SDS011;31319;53.678;-6.254;2022-09-02T14:29:52;11.95;;;4.55;;
42646;SDS011;31319;53.678;-6.254;2022-09-02T14:32:25;10.32;;;4.43;;
42646;SDS011;31319;53.678;-6.254;2022-09-02T14:35:17;9.20;;;4.35;;
42646;SDS011;31319;53.678;-6.254;2022-09-02T14:37:50;14.05;;;5.57;;
42646;SDS011;31319;53.678;-6.254;2022-09-02T14:43:02;9.20;;;4.93;;
42646;SDS011;31319;53.678;-6.254;2022-09-02T14:47:54;7.70;;;4.38;;
42646;SDS011;31319;53.678;-6.254;2022-09-02T14:50:24;13.10;;;4.68;;
42646;SDS011;31319;53.678;-6.254;2022-09-02T14:52:56;5.40;;;4.00;;
42646;SDS011;31319;53.678;-6.254;2022-09-02T14:55:43;10.63;;;4.60;;
42646;SDS011;31319;53.678;-6.254;2022-09-02T14:58:12;11.02;;;4.80;;
42646;SDS011;31319;53.678;-6.254;2022-09-02T15:00:39;11.77;;;4.07;;
42646;SDS011;31319;53.678;-6.254;2022-09-02T15:03:05;10.73;;;4.45;;
42646;SDS011;31319;53.678;-6.254;2022-09-02T15:05:31;10.52;;;4.38;;
42646;SDS011;31319;53.678;-6.254;2022-09-02T15:07:57;12.02;;;4.30;;
42646;SDS011;31319;53.678;-6.254;2022-09-02T15:10:22;13.18;;;3.92;;
42646;SDS011;31319;53.678;-6.254;2022-09-02T15:12:49;9.20;;;3.83;;
42646;SDS011;31319;53.678;-6.254;2022-09-02T15:15:17;10.65;;;4.15;;
42646;SDS011;31319;53.678;-6.254;2022-09-02T15:17:43;9.65;;;3.53;;
42646;SDS011;31319;53.678;-6.254;2022-09-02T15:20:09;8.18;;;3.97;;
42646;SDS011;31319;53.678;-6.254;2022-09-02T15:22:34;7.57;;;3.85;;
42646;SDS011;31319;53.678;-6.254;2022-09-02T15:25:00;6.90;;;4.05;;
42646;SDS011;31319;53.678;-6.254;2022-09-02T15:27:28;8.88;;;3.90;;
42646;SDS011;31319;53.678;-6.254;2022-09-02T15:29:54;8.88;;;3.90;;
42646;SDS011;31319;53.678;-6.254;2022-09-02T15:32:20;7.85;;;4.70;;
42646;SDS011;31319;53.678;-6.254;2022-09-02T15:34:46;9.02;;;4.20;;
42646;SDS011;31319;53.678;-6.254;2022-09-02T15:37:11;8.45;;;3.92;;
42646;SDS011;31319;53.678;-6.254;2022-09-02T15:39:37;9.10;;;3.90;;
42646;SDS011;31319;53.678;-6.254;2022-09-02T15:42:03;10.57;;;4.05;;
42646;SDS011;31319;53.678;-6.254;2022-09-02T15:44:28;16.02;;;4.68;;
42646;SDS011;31319;53.678;-6.254;2022-09-02T15:46:56;11.68;;;4.18;;
42646;SDS011;31319;53.678;-6.254;2022-09-02T15:49:21;11.35;;;4.50;;
42646;SDS011;31319;53.678;-6.254;2022-09-02T15:51:50;14.88;;;4.20;;
42646;SDS011;31319;53.678;-6.254;2022-09-02T15:54:17;11.52;;;4.45;;
42646;SDS011;31319;53.678;-6.254;2022-09-02T15:56:45;12.65;;;4.55;;
42646;SDS011;31319;53.678;-6.254;2022-09-02T15:59:13;11.25;;;4.32;;
42646;SDS011;31319;53.678;-6.254;2022-09-02T16:01:41;13.13;;;3.67;;
42646;SDS011;31319;53.678;-6.254;2022-09-02T16:04:09;10.73;;;3.75;;
42646;SDS011;31319;53.678;-6.254;2022-09-02T16:06:36;10.48;;;3.28;;
42646;SDS011;31319;53.678;-6.254;2022-09-02T16:09:04;9.48;;;3.47;;
42646;SDS011;31319;53.678;-6.254;2022-09-02T16:11:30;8.55;;;4.45;;
42646;SDS011;31319;53.678;-6.254;2022-09-02T16:13:56;12.30;;;4.47;;
42646;SDS011;31319;53.678;-6.254;2022-09-02T16:16:22;10.70;;;4.10;;
42646;SDS011;31319;53.678;-6.254;2022-09-02T16:18:48;7.85;;;4.10;;
42646;SDS011;31319;53.678;-6.254;2022-09-02T16:21:17;9.98;;;4.10;;
42646;SDS011;31319;53.678;-6.254;2022-09-02T16:23:43;10.90;;;4.65;;
42646;SDS011;31319;53.678;-6.254;2022-09-02T16:28:37;11.13;;;4.32;;
42646;SDS011;31319;53.678;-6.254;2022-09-02T16:31:05;8.23;;;4.43;;
42646;SDS011;31319;53.678;-6.254;2022-09-02T16:33:32;15.07;;;5.28;;
42646;SDS011;31319;53.678;-6.254;2022-09-02T16:35:59;15.45;;;4.43;;
42646;SDS011;31319;53.678;-6.254;2022-09-02T16:38:25;7.57;;;4.25;;
42646;SDS011;31319;53.678;-6.254;2022-09-02T16:40:51;10.50;;;4.53;;
42646;SDS011;31319;53.678;-6.254;2022-09-02T16:43:17;8.13;;;4.30;;
42646;SDS011;31319;53.678;-6.254;2022-09-02T16:45:46;14.35;;;5.72;;
42646;SDS011;31319;53.678;-6.254;2022-09-02T16:48:12;8.45;;;5.75;;
42646;SDS011;31319;53.678;-6.254;2022-09-02T16:50:38;10.30;;;5.43;;